createdAt,value
2019-06-01T00:00:11.422Z,18.00
2019-06-01T00:02:38.472Z,18.00
2019-06-01T00:05:06.489Z,17.90
2019-06-01T00:07:34.220Z,17.90
2019-06-01T00:10:02.074Z,17.90
2019-06-01T00:12:29.812Z,17.80
2019-06-01T00:14:57.638Z,17.80
2019-06-01T00:17:25.441Z,17.80
2019-06-01T00:19:53.164Z,17.80
2019-06-01T00:22:21.061Z,17.80
2019-06-01T00:24:50.058Z,17.70
2019-06-01T00:27:17.838Z,17.60
2019-06-01T00:29:46.732Z,17.60
2019-06-01T00:32:14.534Z,17.50
2019-06-01T00:34:43.517Z,17.50
2019-06-01T00:37:11.364Z,17.50
2019-06-01T00:39:39.379Z,17.50
2019-06-01T00:42:07.134Z,17.40
2019-06-01T00:44:34.982Z,17.40
2019-06-01T00:47:02.691Z,17.40
2019-06-01T00:49:30.466Z,17.30
2019-06-01T00:51:58.327Z,17.30
2019-06-01T00:54:26.125Z,17.30
2019-06-01T00:56:53.969Z,17.20
2019-06-01T00:59:21.923Z,17.20
2019-06-01T01:01:50.088Z,17.20
2019-06-01T01:04:17.868Z,17.20
2019-06-01T01:06:46.486Z,17.10
2019-06-01T01:09:14.237Z,17.10
2019-06-01T01:11:41.997Z,17.10
2019-06-01T01:14:09.700Z,17.10
2019-06-01T01:16:37.541Z,17.10
2019-06-01T01:19:05.253Z,17.10
2019-06-01T01:21:33.029Z,17.10
2019-06-01T01:24:00.734Z,17.00
2019-06-01T01:26:28.524Z,17.00
2019-06-01T01:28:56.974Z,17.00
2019-06-01T01:31:24.910Z,16.90
2019-06-01T01:33:53.446Z,16.90
2019-06-01T01:36:21.447Z,16.90
2019-06-01T01:38:50.482Z,16.90
2019-06-01T01:41:18.255Z,16.80
2019-06-01T01:43:45.996Z,16.90
2019-06-01T01:46:13.843Z,16.90
2019-06-01T01:48:42.652Z,16.90
2019-06-01T01:51:10.460Z,16.90
2019-06-01T01:53:38.169Z,16.90
2019-06-01T01:56:06.010Z,16.80
2019-06-01T01:58:33.752Z,16.80
2019-06-01T02:01:16.959Z,16.70
2019-06-01T02:03:31.048Z,16.70
2019-06-01T02:05:59.093Z,16.70
2019-06-01T02:08:26.942Z,16.60
2019-06-01T02:10:55.459Z,16.60
2019-06-01T02:13:23.297Z,16.60
2019-06-01T02:15:52.220Z,16.50
2019-06-01T02:18:20.195Z,16.50
2019-06-01T02:20:47.938Z,16.50
2019-06-01T02:23:15.725Z,16.40
2019-06-01T02:25:43.510Z,16.40
2019-06-01T02:28:11.450Z,16.40
2019-06-01T02:30:39.170Z,16.40
2019-06-01T02:33:06.926Z,16.40
2019-06-01T02:35:34.641Z,16.40
2019-06-01T02:38:03.158Z,16.30
2019-06-01T02:40:33.705Z,16.30
2019-06-01T02:43:02.150Z,16.30
2019-06-01T02:45:30.919Z,16.30
2019-06-01T02:47:59.518Z,16.20
2019-06-01T02:50:27.406Z,16.20
2019-06-01T02:52:55.525Z,16.10
2019-06-01T02:55:23.362Z,16.20
2019-06-01T02:57:51.174Z,16.20
2019-06-01T03:00:40.333Z,16.10
2019-06-01T03:03:08.100Z,16.10
2019-06-01T03:05:35.814Z,16.10
2019-06-01T03:08:03.676Z,16.10
2019-06-01T03:10:31.392Z,16.10
2019-06-01T03:13:00.118Z,16.10
2019-06-01T03:15:27.853Z,16.10
2019-06-01T03:17:55.714Z,16.10
2019-06-01T03:20:23.425Z,16.00
2019-06-01T03:22:52.115Z,16.00
2019-06-01T03:25:19.913Z,16.00
2019-06-01T03:27:48.711Z,16.10
2019-06-01T03:30:22.319Z,16.10
2019-06-01T03:32:50.043Z,16.10
2019-06-01T03:35:17.841Z,16.00
2019-06-01T03:37:45.558Z,16.00
2019-06-01T03:40:23.131Z,16.00
2019-06-01T03:42:43.010Z,15.90
2019-06-01T03:45:12.376Z,15.90
2019-06-01T03:47:40.421Z,15.90
2019-06-01T03:50:09.143Z,15.90
2019-06-01T03:52:37.004Z,15.90
2019-06-01T03:55:05.918Z,15.90
2019-06-01T03:57:33.651Z,15.90
2019-06-01T04:00:01.479Z,15.80
2019-06-01T04:02:33.285Z,15.80
2019-06-01T04:04:58.769Z,15.80
2019-06-01T04:07:26.512Z,15.80
2019-06-01T04:09:54.257Z,15.80
2019-06-01T04:12:22.106Z,15.80
2019-06-01T04:14:49.854Z,15.80
2019-06-01T04:17:17.587Z,15.80
2019-06-01T04:19:45.371Z,15.80
2019-06-01T04:22:13.080Z,15.90
2019-06-01T04:24:40.909Z,15.90
2019-06-01T04:27:10.203Z,15.90
2019-06-01T04:29:38.129Z,16.10
2019-06-01T04:32:06.513Z,16.60
2019-06-01T04:34:35.814Z,17.10
2019-06-01T04:37:05.083Z,17.60
2019-06-01T04:39:32.971Z,17.90
2019-06-01T04:42:00.756Z,18.20
2019-06-01T04:44:28.462Z,18.80
2019-06-01T04:46:56.210Z,19.50
2019-06-01T04:49:23.909Z,20.30
2019-06-01T04:51:51.667Z,20.30
2019-06-01T04:54:19.385Z,20.10
2019-06-01T04:56:47.124Z,20.90
2019-06-01T04:59:15.291Z,22.20
2019-06-01T05:01:43.216Z,23.40
2019-06-01T05:04:11.182Z,24.30
2019-06-01T05:06:38.977Z,25.10
2019-06-01T05:09:07.331Z,25.80
2019-06-01T05:11:35.143Z,26.40
2019-06-01T05:14:02.917Z,27.00
2019-06-01T05:16:30.703Z,27.50
2019-06-01T05:18:58.383Z,28.10
2019-06-01T05:21:26.132Z,28.80
2019-06-01T05:23:53.860Z,29.20
2019-06-01T05:26:21.579Z,29.80
2019-06-01T05:28:49.289Z,30.50
2019-06-01T05:31:24.229Z,31.10
2019-06-01T05:33:46.579Z,31.40
2019-06-01T05:36:14.381Z,31.70
2019-06-01T05:38:42.114Z,31.80
2019-06-01T05:41:10.410Z,31.90
2019-06-01T05:43:39.613Z,32.00
2019-06-01T05:46:07.401Z,32.30
2019-06-01T05:48:35.100Z,32.60
2019-06-01T05:51:02.844Z,32.80
2019-06-01T05:53:30.549Z,32.90
2019-06-01T05:55:58.291Z,33.20
2019-06-01T05:58:29.198Z,33.50
2019-06-01T06:00:55.518Z,33.80
2019-06-01T06:03:37.548Z,34.20
2019-06-01T06:05:52.813Z,34.50
2019-06-01T06:08:20.535Z,35.00
2019-06-01T06:10:48.428Z,35.30
2019-06-01T06:13:17.438Z,34.80
2019-06-01T06:15:45.266Z,34.30
2019-06-01T06:18:13.681Z,34.10
2019-06-01T06:20:41.397Z,34.20
2019-06-01T06:23:09.135Z,34.70
2019-06-01T06:25:39.595Z,35.10
2019-06-01T06:28:06.617Z,35.60
2019-06-01T06:30:34.319Z,35.90
2019-06-01T06:33:02.342Z,36.30
2019-06-01T06:35:30.063Z,36.30
2019-06-01T06:37:57.816Z,35.70
2019-06-01T06:40:27.076Z,35.20
2019-06-01T06:42:54.820Z,35.40
2019-06-01T06:45:22.845Z,35.40
2019-06-01T06:47:50.694Z,36.30
2019-06-01T06:50:19.366Z,37.80
2019-06-01T06:52:47.442Z,39.00
2019-06-01T06:55:15.731Z,39.70
2019-06-01T06:57:43.522Z,40.20
2019-06-01T07:00:11.257Z,40.60
2019-06-01T07:02:38.989Z,41.20
2019-06-01T07:05:06.845Z,40.50
2019-06-01T07:07:34.565Z,40.50
2019-06-01T07:10:02.318Z,41.30
2019-06-01T07:12:30.061Z,41.80
2019-06-01T07:14:57.810Z,40.80
2019-06-01T07:17:26.073Z,39.10
2019-06-01T07:19:53.775Z,39.30
2019-06-01T07:22:21.646Z,39.80
2019-06-01T07:24:49.418Z,39.70
2019-06-01T07:27:17.122Z,39.00
2019-06-01T07:29:44.875Z,38.80
2019-06-01T07:32:12.631Z,39.30
2019-06-01T07:34:42.786Z,39.30
2019-06-01T07:37:09.905Z,38.80
2019-06-01T07:39:37.635Z,38.30
2019-06-01T07:42:05.376Z,38.60
2019-06-01T07:44:33.290Z,38.30
2019-06-01T07:47:01.055Z,38.50
2019-06-01T07:49:29.133Z,38.00
2019-06-01T07:51:56.962Z,37.90
2019-06-01T07:54:24.908Z,37.90
2019-06-01T07:56:52.697Z,37.10
2019-06-01T07:59:21.516Z,36.30
2019-06-01T08:01:50.193Z,35.00
2019-06-01T08:04:18.015Z,33.60
2019-06-01T08:06:48.628Z,32.10
2019-06-01T08:09:15.277Z,30.90
2019-06-01T08:11:43.026Z,29.80
2019-06-01T08:14:10.793Z,28.50
2019-06-01T08:16:38.511Z,27.70
2019-06-01T08:19:06.321Z,27.20
2019-06-01T08:21:34.019Z,26.80
2019-06-01T08:24:02.023Z,26.60
2019-06-01T08:26:30.609Z,26.40
2019-06-01T08:28:58.337Z,26.30
2019-06-01T08:31:26.617Z,26.10
2019-06-01T08:33:54.413Z,25.90
2019-06-01T08:36:23.116Z,25.80
2019-06-01T08:38:50.994Z,25.60
2019-06-01T08:41:18.757Z,25.30
2019-06-01T08:43:46.474Z,25.00
2019-06-01T08:46:14.193Z,24.90
2019-06-01T08:48:41.983Z,24.90
2019-06-01T08:51:09.745Z,24.90
2019-06-01T08:53:37.827Z,24.90
2019-06-01T08:56:05.566Z,24.90
2019-06-01T08:58:34.548Z,24.80
2019-06-01T09:01:02.431Z,24.70
2019-06-01T09:03:30.163Z,24.70
2019-06-01T09:05:57.958Z,24.80
2019-06-01T09:08:27.035Z,24.90
2019-06-01T09:10:54.831Z,25.00
2019-06-01T09:13:22.636Z,25.10
2019-06-01T09:15:50.378Z,25.00
2019-06-01T09:18:18.288Z,25.10
2019-06-01T09:20:46.051Z,25.20
2019-06-01T09:23:13.788Z,25.30
2019-06-01T09:25:41.495Z,25.40
2019-06-01T09:28:09.218Z,25.50
2019-06-01T09:30:37.028Z,25.50
2019-06-01T09:33:04.718Z,25.50
2019-06-01T09:35:51.297Z,25.40
2019-06-01T09:38:02.349Z,25.40
2019-06-01T09:40:31.434Z,25.60
2019-06-01T09:42:59.830Z,25.50
2019-06-01T09:45:27.821Z,25.60
2019-06-01T09:47:55.690Z,25.60
2019-06-01T09:50:23.399Z,25.70
2019-06-01T09:52:51.154Z,25.70
2019-06-01T09:55:18.849Z,25.80
2019-06-01T09:57:46.647Z,25.90
2019-06-01T10:00:14.637Z,25.90
2019-06-01T10:02:42.370Z,26.10
2019-06-01T10:05:11.097Z,26.20
2019-06-01T10:07:39.398Z,26.20
2019-06-01T10:10:07.149Z,26.20
2019-06-01T10:12:35.966Z,26.20
2019-06-01T10:15:04.065Z,26.30
2019-06-01T10:17:33.185Z,26.40
2019-06-01T10:20:01.287Z,26.50
2019-06-01T10:22:29.001Z,26.60
2019-06-01T10:24:56.707Z,26.70
2019-06-01T10:27:24.425Z,26.70
2019-06-01T10:29:52.134Z,26.80
2019-06-01T10:32:19.854Z,26.80
2019-06-01T10:34:47.546Z,26.90
2019-06-01T10:37:15.264Z,26.80
2019-06-01T10:39:42.976Z,26.80
2019-06-01T10:42:10.717Z,26.80
2019-06-01T10:44:43.385Z,26.80
2019-06-01T10:47:07.975Z,26.90
2019-06-01T10:49:35.998Z,27.00
2019-06-01T10:52:03.697Z,27.10
2019-06-01T10:54:32.789Z,27.20
2019-06-01T10:57:00.585Z,27.30
2019-06-01T10:59:28.346Z,27.30
2019-06-01T11:01:56.112Z,27.30
2019-06-01T11:04:23.825Z,27.30
2019-06-01T11:06:51.584Z,27.30
2019-06-01T11:09:19.509Z,27.30
2019-06-01T11:11:47.219Z,27.20
2019-06-01T11:14:14.945Z,27.20
2019-06-01T11:16:43.715Z,27.30
2019-06-01T11:19:12.185Z,27.30
2019-06-01T11:21:40.017Z,27.40
2019-06-01T11:24:07.761Z,27.60
2019-06-01T11:26:35.594Z,27.70
2019-06-01T11:29:03.362Z,27.80
2019-06-01T11:31:31.074Z,27.90
2019-06-01T11:33:58.797Z,27.90
2019-06-01T11:36:26.508Z,27.90
2019-06-01T11:38:54.230Z,27.90
2019-06-01T11:41:24.741Z,28.00
2019-06-01T11:43:52.485Z,28.10
2019-06-01T11:46:20.202Z,28.10
2019-06-01T11:48:47.967Z,28.20
2019-06-01T11:51:15.669Z,28.20
2019-06-01T11:53:43.503Z,28.30
2019-06-01T11:56:11.313Z,28.20
2019-06-01T11:58:47.380Z,28.30
2019-06-01T12:01:22.245Z,28.30
2019-06-01T12:03:49.881Z,28.30
2019-06-01T12:06:17.593Z,28.30
2019-06-01T12:08:46.373Z,28.40
2019-06-01T12:11:14.134Z,28.40
2019-06-01T12:13:42.215Z,28.40
2019-06-01T12:16:09.967Z,28.40
2019-06-01T12:18:38.511Z,28.40
2019-06-01T12:21:06.292Z,28.40
2019-06-01T12:23:34.005Z,28.40
2019-06-01T12:26:02.165Z,28.40
2019-06-01T12:28:29.886Z,28.50
2019-06-01T12:30:57.613Z,28.60
2019-06-01T12:33:25.428Z,28.70
2019-06-01T12:35:53.150Z,28.80
2019-06-01T12:38:20.862Z,28.90
2019-06-01T12:40:48.602Z,29.00
2019-06-01T12:43:16.335Z,29.10
2019-06-01T12:45:44.057Z,29.10
2019-06-01T12:48:11.773Z,29.10
2019-06-01T12:50:39.997Z,29.10
2019-06-01T12:53:07.785Z,29.10
2019-06-01T12:55:37.026Z,29.10
2019-06-01T12:58:04.839Z,29.10
2019-06-01T13:00:32.685Z,29.00
2019-06-01T13:03:06.956Z,29.00
2019-06-01T13:05:30.211Z,28.90
2019-06-01T13:08:02.370Z,29.00
2019-06-01T13:10:27.847Z,29.00
2019-06-01T13:12:58.624Z,29.00
2019-06-01T13:15:26.509Z,29.10
2019-06-01T13:17:54.647Z,29.20
2019-06-01T13:20:22.562Z,29.20
2019-06-01T13:22:50.406Z,29.30
2019-06-01T13:25:18.337Z,29.30
2019-06-01T13:27:46.484Z,29.30
2019-06-01T13:30:16.396Z,29.30
2019-06-01T13:32:44.435Z,29.30
2019-06-01T13:35:12.221Z,29.30
2019-06-01T13:37:40.573Z,29.30
2019-06-01T13:40:08.507Z,29.20
2019-06-01T13:42:36.277Z,29.10
2019-06-01T13:45:04.772Z,29.10
2019-06-01T13:47:32.605Z,29.20
2019-06-01T13:50:00.417Z,29.20
2019-06-01T13:52:28.350Z,29.30
2019-06-01T13:54:56.037Z,29.40
2019-06-01T13:57:23.973Z,29.40
2019-06-01T13:59:52.834Z,29.50
2019-06-01T14:02:20.739Z,29.50
2019-06-01T14:04:49.728Z,29.50
2019-06-01T14:07:19.561Z,29.50
2019-06-01T14:09:47.577Z,29.50
2019-06-01T14:12:15.373Z,29.50
2019-06-01T14:14:43.102Z,29.40
2019-06-01T14:17:10.961Z,29.50
2019-06-01T14:19:38.729Z,29.50
2019-06-01T14:22:07.168Z,29.60
2019-06-01T14:24:34.944Z,29.60
2019-06-01T14:27:02.791Z,29.50
2019-06-01T14:29:30.629Z,29.40
2019-06-01T14:31:58.355Z,29.40
2019-06-01T14:34:26.067Z,29.40
2019-06-01T14:36:54.563Z,29.50
2019-06-01T14:39:22.469Z,29.50
2019-06-01T14:41:50.978Z,29.60
2019-06-01T14:44:18.928Z,29.60
2019-06-01T14:46:55.150Z,29.60
2019-06-01T14:49:16.279Z,29.60
2019-06-01T14:51:43.986Z,29.60
2019-06-01T14:54:11.735Z,29.60
2019-06-01T14:56:41.798Z,29.60
2019-06-01T14:59:09.551Z,29.50
2019-06-01T15:01:37.305Z,29.60
2019-06-01T15:04:05.031Z,29.60
2019-06-01T15:06:32.794Z,29.60
2019-06-01T15:09:15.782Z,29.60
2019-06-01T15:11:30.143Z,29.60
2019-06-01T15:13:58.600Z,29.60
2019-06-01T15:16:26.460Z,29.60
2019-06-01T15:18:54.527Z,29.60
2019-06-01T15:21:23.301Z,29.50
2019-06-01T15:23:51.987Z,29.60
2019-06-01T15:26:19.798Z,29.60
2019-06-01T15:28:47.525Z,29.50
2019-06-01T15:31:15.228Z,29.40
2019-06-01T15:33:42.949Z,29.50
2019-06-01T15:36:10.703Z,29.50
2019-06-01T15:38:38.449Z,29.50
2019-06-01T15:41:06.162Z,29.50
2019-06-01T15:43:33.892Z,29.50
2019-06-01T15:46:02.060Z,29.50
2019-06-01T15:48:29.976Z,29.50
2019-06-01T15:51:01.326Z,29.40
2019-06-01T15:53:27.212Z,29.50
2019-06-01T15:55:54.968Z,29.50
2019-06-01T15:58:22.997Z,29.50
2019-06-01T16:00:50.746Z,29.50
2019-06-01T16:03:18.442Z,29.50
2019-06-01T16:05:46.207Z,29.40
2019-06-01T16:08:14.142Z,29.40
2019-06-01T16:10:42.052Z,29.40
2019-06-01T16:13:09.744Z,29.30
2019-06-01T16:15:37.558Z,29.40
2019-06-01T16:18:05.193Z,29.40
2019-06-01T16:20:32.899Z,29.30
2019-06-01T16:23:00.625Z,29.30
2019-06-01T16:25:28.330Z,29.30
2019-06-01T16:27:56.611Z,29.30
2019-06-01T16:30:24.495Z,29.30
2019-06-01T16:32:52.190Z,29.20
2019-06-01T16:35:19.893Z,29.20
2019-06-01T16:37:49.573Z,29.10
2019-06-01T16:40:17.403Z,29.10
2019-06-01T16:42:45.117Z,29.10
2019-06-01T16:45:12.923Z,29.00
2019-06-01T16:47:40.653Z,29.00
2019-06-01T16:50:08.353Z,29.00
2019-06-01T16:52:36.057Z,29.00
2019-06-01T16:55:04.968Z,28.90
2019-06-01T16:57:33.329Z,28.90
2019-06-01T17:00:02.534Z,28.80
2019-06-01T17:02:30.385Z,28.80
2019-06-01T17:04:58.519Z,28.70
2019-06-01T17:07:26.919Z,28.70
2019-06-01T17:09:54.670Z,28.70
2019-06-01T17:12:22.549Z,28.70
2019-06-01T17:14:50.562Z,28.60
2019-06-01T17:17:18.291Z,28.60
2019-06-01T17:19:46.001Z,28.50
2019-06-01T17:22:13.732Z,28.50
2019-06-01T17:24:41.478Z,28.40
2019-06-01T17:27:09.255Z,28.40
2019-06-01T17:29:36.998Z,28.40
2019-06-01T17:32:21.527Z,28.30
2019-06-01T17:34:34.234Z,28.20
2019-06-01T17:37:02.728Z,28.20
2019-06-01T17:39:30.457Z,28.20
2019-06-01T17:41:58.182Z,28.10
2019-06-01T17:44:25.884Z,28.10
2019-06-01T17:46:54.240Z,28.00
2019-06-01T17:49:22.001Z,27.90
2019-06-01T17:51:49.732Z,27.90
2019-06-01T17:54:17.506Z,27.90
2019-06-01T17:56:45.233Z,27.80
2019-06-01T17:59:13.018Z,27.80
2019-06-01T18:01:42.499Z,27.70
2019-06-01T18:04:10.246Z,27.70
2019-06-01T18:06:37.964Z,27.60
2019-06-01T18:09:06.581Z,27.60
2019-06-01T18:11:34.301Z,27.50
2019-06-01T18:14:02.207Z,27.50
2019-06-01T18:16:30.030Z,27.50
2019-06-01T18:18:57.913Z,27.40
2019-06-01T18:21:25.763Z,27.40
2019-06-01T18:23:53.473Z,27.40
2019-06-01T18:26:21.218Z,27.30
2019-06-01T18:28:48.932Z,27.30
2019-06-01T18:31:16.635Z,27.30
2019-06-01T18:33:44.362Z,27.20
2019-06-01T18:36:12.054Z,27.20
2019-06-01T18:38:39.805Z,27.10
2019-06-01T18:41:14.336Z,27.00
2019-06-01T18:43:37.075Z,26.90
2019-06-01T18:46:05.726Z,26.90
2019-06-01T18:48:33.501Z,26.80
2019-06-01T18:51:01.210Z,26.70
2019-06-01T18:53:28.952Z,26.70
2019-06-01T18:55:56.650Z,26.60
2019-06-01T18:58:24.597Z,26.50
2019-06-01T19:00:52.286Z,26.50
2019-06-01T19:03:20.034Z,26.40
2019-06-01T19:05:47.721Z,26.30
2019-06-01T19:08:16.109Z,26.20
2019-06-01T19:10:44.309Z,26.20
2019-06-01T19:13:12.128Z,26.10
2019-06-01T19:15:39.864Z,26.00
2019-06-01T19:18:08.294Z,25.90
2019-06-01T19:20:36.061Z,25.70
2019-06-01T19:23:03.773Z,25.60
2019-06-01T19:25:31.505Z,25.40
2019-06-01T19:27:59.217Z,25.30
2019-06-01T19:30:41.422Z,25.20
2019-06-01T19:33:10.918Z,25.10
2019-06-01T19:35:39.034Z,25.00
2019-06-01T19:38:07.075Z,24.90
2019-06-01T19:40:36.048Z,24.90
2019-06-01T19:43:04.161Z,24.80
2019-06-01T19:45:31.958Z,24.70
2019-06-01T19:47:59.693Z,24.60
2019-06-01T19:50:27.522Z,24.60
2019-06-01T19:52:55.275Z,24.50
2019-06-01T19:55:23.609Z,24.40
2019-06-01T19:57:51.324Z,24.40
2019-06-01T20:00:19.101Z,24.30
2019-06-01T20:02:46.830Z,24.30
2019-06-01T20:05:14.709Z,24.30
2019-06-01T20:07:42.402Z,24.20
2019-06-01T20:10:10.221Z,24.20
2019-06-01T20:12:37.882Z,24.20
2019-06-01T20:15:05.639Z,24.10
2019-06-01T20:17:33.342Z,24.10
2019-06-01T20:20:01.084Z,24.10
2019-06-01T20:22:28.769Z,24.00
2019-06-01T20:24:56.503Z,23.90
2019-06-01T20:27:25.831Z,23.80
2019-06-01T20:29:53.565Z,23.70
2019-06-01T20:32:22.213Z,23.60
2019-06-01T20:34:50.021Z,23.50
2019-06-01T20:37:18.412Z,23.50
2019-06-01T20:39:46.309Z,23.40
2019-06-01T20:42:24.368Z,23.30
2019-06-01T20:44:43.810Z,23.30
2019-06-01T20:47:12.506Z,23.20
2019-06-01T20:49:40.458Z,23.10
2019-06-01T20:52:08.437Z,23.00
2019-06-01T20:54:36.574Z,22.90
2019-06-01T20:57:04.641Z,22.80
2019-06-01T20:59:32.447Z,22.70
2019-06-01T21:02:00.629Z,22.60
2019-06-01T21:04:28.567Z,22.60
2019-06-01T21:06:56.353Z,22.40
2019-06-01T21:09:24.714Z,22.40
2019-06-01T21:11:56.544Z,22.30
2019-06-01T21:14:56.218Z,22.30
2019-06-01T21:17:33.810Z,22.30
2019-06-01T21:20:26.828Z,22.40
2019-06-01T21:22:53.981Z,22.40
2019-06-01T21:25:34.751Z,22.30
2019-06-01T21:28:02.783Z,22.30
2019-06-01T21:30:31.334Z,22.20
2019-06-01T21:32:59.457Z,22.10
2019-06-01T21:35:27.555Z,22.10
2019-06-01T21:37:56.742Z,21.90
2019-06-01T21:40:26.349Z,21.90
2019-06-01T21:43:07.264Z,21.80
2019-06-01T21:45:27.326Z,21.70
2019-06-01T21:47:55.546Z,21.70
2019-06-01T21:50:27.043Z,21.60
2019-06-01T21:53:01.353Z,21.60
2019-06-01T21:55:29.281Z,21.50
2019-06-01T21:57:57.284Z,21.50
2019-06-01T22:00:30.463Z,21.50
2019-06-01T22:02:58.240Z,21.40
2019-06-01T22:05:27.327Z,21.40
2019-06-01T22:07:55.398Z,21.40
2019-06-01T22:10:23.396Z,21.20
2019-06-01T22:12:51.419Z,21.20
2019-06-01T22:15:19.520Z,21.20
2019-06-01T22:17:47.588Z,21.20
2019-06-01T22:20:15.610Z,21.10
2019-06-01T22:22:43.397Z,21.00
2019-06-01T22:25:11.349Z,21.00
2019-06-01T22:27:39.230Z,20.90
2019-06-01T22:30:07.553Z,20.80
2019-06-01T22:32:35.424Z,20.80
2019-06-01T22:35:03.972Z,20.70
2019-06-01T22:37:32.412Z,20.70
2019-06-01T22:40:01.822Z,20.70
2019-06-01T22:42:30.654Z,20.70
2019-06-01T22:44:58.536Z,20.70
2019-06-01T22:47:26.688Z,20.60
2019-06-01T22:49:54.502Z,20.60
2019-06-01T22:52:22.986Z,20.50
2019-06-01T22:54:51.057Z,20.40
2019-06-01T22:57:20.233Z,20.40
2019-06-01T22:59:48.403Z,20.30
2019-06-01T23:02:16.427Z,20.30
2019-06-01T23:04:44.165Z,20.20
2019-06-01T23:07:11.881Z,20.10
2019-06-01T23:09:39.837Z,20.20
2019-06-01T23:12:08.231Z,20.10
2019-06-01T23:14:36.112Z,20.00
2019-06-01T23:17:04.017Z,20.10
2019-06-01T23:19:32.643Z,20.00
2019-06-01T23:22:00.334Z,19.90
2019-06-01T23:24:28.254Z,19.90
2019-06-01T23:26:56.046Z,19.90
2019-06-01T23:29:24.074Z,19.80
2019-06-01T23:31:51.830Z,19.80
2019-06-01T23:34:19.569Z,19.80
2019-06-01T23:36:47.313Z,19.70
2019-06-01T23:39:15.137Z,19.60
2019-06-01T23:41:44.466Z,19.60
2019-06-01T23:44:12.856Z,19.50
2019-06-01T23:46:40.653Z,19.40
2019-06-01T23:49:08.390Z,19.40
2019-06-01T23:51:36.121Z,19.40
2019-06-01T23:54:03.862Z,19.40
2019-06-01T23:56:31.949Z,19.30
2019-06-01T23:58:59.694Z,19.30
